createdAt,value
2018-06-19T00:02:10.470Z,52.42
2018-06-19T00:04:39.146Z,53.14
2018-06-19T00:07:07.713Z,52.50
2018-06-19T00:09:36.429Z,52.71
2018-06-19T00:12:05.077Z,53.28
2018-06-19T00:14:33.720Z,53.36
2018-06-19T00:17:02.336Z,53.12
2018-06-19T00:19:31.701Z,53.60
2018-06-19T00:22:02.005Z,53.13
2018-06-19T00:24:30.586Z,53.47
2018-06-19T00:26:59.149Z,53.44
2018-06-19T00:29:27.786Z,53.52
2018-06-19T00:31:56.330Z,53.45
2018-06-19T00:34:24.911Z,52.93
2018-06-19T00:36:53.463Z,53.21
2018-06-19T00:39:22.101Z,53.04
2018-06-19T00:41:50.761Z,53.65
2018-06-19T00:44:19.371Z,53.48
2018-06-19T00:46:50.358Z,53.76
2018-06-19T00:49:18.990Z,53.32
2018-06-19T00:51:47.679Z,54.27
2018-06-19T00:54:16.369Z,54.12
2018-06-19T00:56:53.618Z,53.69
2018-06-19T00:59:22.152Z,54.17
2018-06-19T01:01:51.401Z,53.93
2018-06-19T01:04:20.032Z,53.92
2018-06-19T01:06:49.371Z,54.06
2018-06-19T01:09:18.459Z,54.65
2018-06-19T01:11:47.075Z,54.16
2018-06-19T01:14:15.689Z,54.79
2018-06-19T01:16:44.158Z,54.39
2018-06-19T01:19:12.843Z,54.24
2018-06-19T01:21:41.544Z,54.94
2018-06-19T01:24:10.274Z,54.94
2018-06-19T01:26:39.175Z,55.08
2018-06-19T01:29:07.926Z,54.63
2018-06-19T01:31:36.456Z,54.32
2018-06-19T01:34:05.081Z,54.89
2018-06-19T01:36:33.728Z,54.62
2018-06-19T01:39:02.467Z,54.79
2018-06-19T01:41:31.254Z,54.88
2018-06-19T01:43:59.844Z,54.57
2018-06-19T01:46:28.375Z,54.48
2018-06-19T01:48:57.176Z,54.20
2018-06-19T01:51:25.994Z,54.53
2018-06-19T01:53:54.580Z,54.83
2018-06-19T01:56:23.312Z,54.65
2018-06-19T01:58:51.981Z,55.19
2018-06-19T02:01:20.644Z,55.09
2018-06-19T02:03:49.266Z,55.86
2018-06-19T02:06:18.230Z,55.51
2018-06-19T02:08:46.806Z,55.93
2018-06-19T02:11:15.404Z,56.13
2018-06-19T02:13:43.971Z,55.29
2018-06-19T02:16:12.504Z,55.16
2018-06-19T02:18:41.031Z,55.40
2018-06-19T02:21:09.607Z,55.29
2018-06-19T02:23:38.210Z,56.00
2018-06-19T02:26:07.021Z,55.60
2018-06-19T02:28:35.669Z,55.24
2018-06-19T02:31:04.525Z,55.18
2018-06-19T02:33:33.146Z,54.98
2018-06-19T02:36:01.696Z,55.28
2018-06-19T02:38:30.476Z,55.28
2018-06-19T02:40:59.079Z,56.07
2018-06-19T02:43:27.686Z,55.78
2018-06-19T02:45:56.223Z,56.17
2018-06-19T02:48:24.986Z,55.21
2018-06-19T02:50:53.659Z,55.62
2018-06-19T02:53:22.231Z,55.35
2018-06-19T02:55:50.798Z,55.38
2018-06-19T02:58:19.360Z,55.63
2018-06-19T03:00:48.041Z,54.94
2018-06-19T03:03:16.673Z,55.41
2018-06-19T03:05:45.165Z,55.13
2018-06-19T03:08:13.814Z,55.06
2018-06-19T03:10:42.426Z,55.08
2018-06-19T03:13:11.024Z,55.29
2018-06-19T03:15:39.550Z,54.92
2018-06-19T03:18:08.463Z,54.92
2018-06-19T03:20:38.236Z,54.59
2018-06-19T03:23:07.036Z,54.89
2018-06-19T03:25:35.669Z,55.19
2018-06-19T03:28:04.336Z,54.48
2018-06-19T03:30:32.979Z,55.27
2018-06-19T03:33:01.621Z,54.65
2018-06-19T03:35:30.358Z,55.19
2018-06-19T03:37:59.085Z,55.19
2018-06-19T03:40:28.483Z,54.92
2018-06-19T03:42:57.158Z,55.07
2018-06-19T03:45:25.794Z,54.89
2018-06-19T03:47:54.463Z,55.55
2018-06-19T03:50:22.989Z,54.97
2018-06-19T03:52:51.666Z,55.44
2018-06-19T03:55:20.176Z,55.39
2018-06-19T03:57:48.875Z,55.46
2018-06-19T04:00:17.405Z,54.80
2018-06-19T04:02:45.990Z,55.03
2018-06-19T04:05:15.374Z,55.65
2018-06-19T04:07:43.912Z,55.17
2018-06-19T04:10:12.705Z,54.68
2018-06-19T04:12:41.302Z,54.65
2018-06-19T04:15:09.986Z,54.68
2018-06-19T04:17:38.639Z,54.57
2018-06-19T04:20:07.316Z,55.39
2018-06-19T04:22:35.879Z,55.22
2018-06-19T04:25:04.453Z,55.36
2018-06-19T04:27:33.117Z,54.93
2018-06-19T04:30:01.749Z,54.63
2018-06-19T04:32:30.433Z,54.82
2018-06-19T04:34:59.163Z,55.24
2018-06-19T04:37:28.753Z,54.97
2018-06-19T04:39:57.441Z,54.90
2018-06-19T04:42:26.892Z,54.82
2018-06-19T04:44:55.811Z,55.62
2018-06-19T04:47:24.599Z,55.10
2018-06-19T04:49:53.281Z,55.31
2018-06-19T04:52:22.164Z,55.31
2018-06-19T04:54:50.822Z,55.17
2018-06-19T04:57:19.583Z,55.27
2018-06-19T04:59:48.308Z,55.36
2018-06-19T05:02:17.245Z,55.61
2018-06-19T05:04:45.917Z,55.31
2018-06-19T05:07:14.604Z,55.39
2018-06-19T05:09:43.313Z,55.72
2018-06-19T05:12:11.976Z,56.24
2018-06-19T05:14:40.608Z,55.65
2018-06-19T05:17:09.218Z,55.52
2018-06-19T05:19:37.785Z,55.61
2018-06-19T05:22:06.410Z,55.52
2018-06-19T05:24:35.201Z,55.58
2018-06-19T05:27:03.838Z,55.91
2018-06-19T05:29:32.503Z,56.01
2018-06-19T05:32:01.284Z,55.66
2018-06-19T05:34:29.899Z,56.33
2018-06-19T05:36:58.736Z,55.86
2018-06-19T05:39:27.821Z,55.75
2018-06-19T05:41:56.528Z,56.50
2018-06-19T05:44:25.348Z,56.35
2018-06-19T05:46:54.200Z,55.56
2018-06-19T05:49:23.217Z,55.61
2018-06-19T05:51:51.976Z,55.26
2018-06-19T05:54:21.122Z,56.05
2018-06-19T05:56:49.908Z,55.83
2018-06-19T05:59:18.683Z,56.68
2018-06-19T06:01:47.287Z,56.67
2018-06-19T06:04:16.260Z,55.79
2018-06-19T06:06:44.888Z,56.41
2018-06-19T06:09:13.644Z,56.40
2018-06-19T06:11:42.612Z,56.36
2018-06-19T06:14:11.508Z,55.90
2018-06-19T06:16:40.448Z,55.81
2018-06-19T06:19:09.223Z,56.52
2018-06-19T06:21:38.093Z,55.82
2018-06-19T06:24:06.861Z,55.48
2018-06-19T06:26:35.573Z,56.42
2018-06-19T06:29:04.675Z,56.21
2018-06-19T06:31:33.359Z,55.72
2018-06-19T06:34:02.370Z,55.32
2018-06-19T06:36:31.188Z,54.98
2018-06-19T06:38:59.951Z,55.33
2018-06-19T06:41:28.732Z,55.72
2018-06-19T06:43:57.496Z,55.51
2018-06-19T06:46:26.227Z,55.63
2018-06-19T06:48:55.226Z,55.70
2018-06-19T06:51:24.001Z,55.88
2018-06-19T06:53:52.839Z,55.28
2018-06-19T06:56:21.622Z,55.96
2018-06-19T06:58:50.192Z,56.10
2018-06-19T07:01:18.835Z,55.93
2018-06-19T07:03:47.802Z,56.18
2018-06-19T07:06:16.649Z,55.27
2018-06-19T07:08:45.425Z,55.08
2018-06-19T07:11:14.088Z,55.66
2018-06-19T07:13:42.797Z,55.31
2018-06-19T07:16:11.485Z,55.54
2018-06-19T07:18:40.249Z,55.71
2018-06-19T07:21:09.048Z,56.03
2018-06-19T07:23:37.864Z,56.39
2018-06-19T07:26:06.483Z,56.74
2018-06-19T07:28:35.138Z,56.40
2018-06-19T07:31:03.824Z,56.25
2018-06-19T07:33:32.522Z,56.27
2018-06-19T07:36:01.351Z,57.29
2018-06-19T07:38:30.171Z,56.74
2018-06-19T07:40:58.808Z,56.73
2018-06-19T07:43:27.471Z,56.82
2018-06-19T07:45:56.622Z,56.65
2018-06-19T07:48:25.577Z,57.06
2018-06-19T07:50:54.464Z,56.47
2018-06-19T07:53:23.132Z,57.13
2018-06-19T07:55:51.853Z,57.13
2018-06-19T07:58:20.680Z,57.41
2018-06-19T08:00:49.450Z,56.68
2018-06-19T08:03:18.194Z,56.57
2018-06-19T08:05:52.195Z,57.39
2018-06-19T08:08:21.126Z,57.26
2018-06-19T08:10:49.839Z,57.23
2018-06-19T08:13:18.482Z,56.86
2018-06-19T08:15:47.186Z,57.09
2018-06-19T08:18:16.074Z,56.97
2018-06-19T08:20:45.053Z,56.43
2018-06-19T08:23:13.869Z,57.28
2018-06-19T08:25:42.579Z,57.64
2018-06-19T08:28:11.294Z,57.74
2018-06-19T08:30:40.034Z,57.86
2018-06-19T08:33:08.611Z,57.91
2018-06-19T08:35:37.267Z,57.45
2018-06-19T08:38:06.271Z,57.81
2018-06-19T08:40:34.978Z,57.41
2018-06-19T08:43:03.578Z,56.97
2018-06-19T08:45:32.324Z,57.43
2018-06-19T08:48:00.957Z,57.16
2018-06-19T08:50:29.516Z,57.02
2018-06-19T08:52:58.127Z,56.82
2018-06-19T08:55:26.745Z,57.30
2018-06-19T08:57:55.338Z,57.60
2018-06-19T09:00:24.112Z,56.54
2018-06-19T09:02:52.771Z,56.94
2018-06-19T09:05:21.371Z,56.37
2018-06-19T09:07:50.022Z,56.80
2018-06-19T09:10:18.691Z,56.69
2018-06-19T09:12:47.267Z,56.32
2018-06-19T09:15:15.873Z,56.04
2018-06-19T09:17:44.360Z,56.37
2018-06-19T09:20:13.029Z,56.12
2018-06-19T09:22:45.805Z,56.07
2018-06-19T09:25:14.832Z,55.46
2018-06-19T09:27:43.486Z,55.64
2018-06-19T09:30:12.173Z,54.48
2018-06-19T09:32:40.768Z,55.20
2018-06-19T09:35:09.381Z,55.58
2018-06-19T09:37:37.881Z,55.17
2018-06-19T09:40:06.389Z,54.44
2018-06-19T09:42:35.004Z,55.50
2018-06-19T09:45:03.787Z,54.83
2018-06-19T09:47:32.295Z,55.29
2018-06-19T09:50:00.814Z,55.18
2018-06-19T09:52:29.354Z,55.25
2018-06-19T09:54:58.194Z,56.10
2018-06-19T09:57:26.792Z,55.90
2018-06-19T09:59:55.408Z,56.66
2018-06-19T10:02:24.040Z,56.49
2018-06-19T10:04:52.657Z,56.45
2018-06-19T10:07:21.782Z,56.35
2018-06-19T10:09:52.105Z,55.21
2018-06-19T10:12:21.255Z,55.33
2018-06-19T10:14:50.458Z,54.88
2018-06-19T10:17:19.012Z,55.09
2018-06-19T10:19:47.760Z,55.37
2018-06-19T10:22:16.451Z,55.53
2018-06-19T10:24:45.030Z,54.97
2018-06-19T10:27:13.794Z,55.13
2018-06-19T10:29:42.588Z,54.54
2018-06-19T10:32:11.289Z,54.40
2018-06-19T10:34:40.090Z,54.40
2018-06-19T10:37:08.774Z,53.19
2018-06-19T10:39:37.580Z,52.39
2018-06-19T10:42:06.273Z,51.94
2018-06-19T10:44:35.023Z,51.36
2018-06-19T10:47:03.718Z,52.00
2018-06-19T10:49:32.591Z,51.32
2018-06-19T10:52:01.340Z,51.95
2018-06-19T10:54:29.934Z,51.40
2018-06-19T10:56:58.578Z,51.60
2018-06-19T10:59:27.198Z,52.24
2018-06-19T11:01:55.882Z,52.40
2018-06-19T11:04:24.586Z,52.26
2018-06-19T11:06:53.220Z,52.28
2018-06-19T11:09:22.226Z,53.02
2018-06-19T11:11:50.877Z,52.26
2018-06-19T11:14:19.533Z,52.69
2018-06-19T11:16:48.286Z,51.62
2018-06-19T11:19:17.160Z,52.13
2018-06-19T11:21:46.046Z,51.68
2018-06-19T11:24:14.761Z,51.74
2018-06-19T11:26:43.496Z,51.77
2018-06-19T11:29:12.240Z,52.20
2018-06-19T11:31:41.022Z,52.67
2018-06-19T11:34:09.725Z,53.23
2018-06-19T11:36:38.511Z,53.62
2018-06-19T11:39:09.851Z,53.80
2018-06-19T11:41:38.946Z,53.84
2018-06-19T11:44:07.771Z,53.97
2018-06-19T11:46:36.542Z,53.53
2018-06-19T11:49:05.626Z,53.42
2018-06-19T11:51:34.331Z,52.32
2018-06-19T11:54:03.035Z,52.50
2018-06-19T11:56:31.682Z,51.08
2018-06-19T11:59:00.355Z,50.80
2018-06-19T12:01:28.963Z,50.55
2018-06-19T12:03:57.748Z,50.68
2018-06-19T12:06:26.520Z,50.90
2018-06-19T12:08:55.238Z,50.02
2018-06-19T12:11:24.001Z,50.42
2018-06-19T12:13:52.655Z,50.47
2018-06-19T12:16:21.841Z,50.69
2018-06-19T12:18:50.690Z,49.39
2018-06-19T12:21:19.572Z,50.48
2018-06-19T12:23:48.283Z,50.12
2018-06-19T12:26:16.947Z,49.49
2018-06-19T12:28:45.754Z,49.56
2018-06-19T12:31:14.530Z,49.67
2018-06-19T12:33:43.293Z,49.12
2018-06-19T12:36:12.097Z,48.82
2018-06-19T12:38:41.223Z,47.31
2018-06-19T12:41:09.925Z,48.04
2018-06-19T12:43:38.763Z,47.25
2018-06-19T12:46:10.008Z,46.79
2018-06-19T12:48:40.294Z,47.50
2018-06-19T12:52:18.306Z,46.30
2018-06-19T12:55:33.140Z,45.81
2018-06-19T12:58:01.825Z,44.22
2018-06-19T13:00:31.499Z,45.40
2018-06-19T13:03:16.318Z,44.67
2018-06-19T13:05:56.417Z,43.93
2018-06-19T13:08:25.621Z,44.21
2018-06-19T13:10:55.479Z,44.23
2018-06-19T13:13:35.625Z,44.26
2018-06-19T13:16:05.447Z,43.32
2018-06-19T13:18:46.371Z,44.78
2018-06-19T13:21:16.927Z,45.18
2018-06-19T13:23:46.018Z,44.66
2018-06-19T13:26:18.653Z,44.09
2018-06-19T13:29:58.473Z,45.37
2018-06-19T13:32:27.524Z,44.77
2018-06-19T13:34:56.420Z,45.07
2018-06-19T13:37:29.330Z,44.53
2018-06-19T13:41:13.966Z,45.41
2018-06-19T13:43:53.984Z,46.18
2018-06-19T13:46:22.803Z,46.92
2018-06-19T13:48:51.698Z,45.99
2018-06-19T13:51:20.566Z,46.55
2018-06-19T13:53:49.422Z,45.91
2018-06-19T13:57:35.213Z,46.31
2018-06-19T14:00:06.069Z,45.75
2018-06-19T14:02:34.958Z,45.82
2018-06-19T14:05:04.234Z,45.97
2018-06-19T14:07:37.243Z,45.21
2018-06-19T14:10:19.778Z,45.35
2018-06-19T14:13:03.528Z,45.21
2018-06-19T14:15:37.229Z,46.51
2018-06-19T14:18:06.594Z,46.11
2018-06-19T14:20:36.295Z,46.60
2018-06-19T14:23:05.355Z,46.00
2018-06-19T14:25:34.476Z,46.54
2018-06-19T14:28:03.533Z,45.97
2018-06-19T14:30:32.240Z,46.07
2018-06-19T14:33:01.173Z,45.42
2018-06-19T14:35:29.947Z,46.20
2018-06-19T14:37:58.905Z,45.78
2018-06-19T14:40:27.674Z,44.58
2018-06-19T14:42:56.351Z,44.09
2018-06-19T14:45:25.236Z,44.04
2018-06-19T14:47:54.055Z,43.21
2018-06-19T14:50:22.743Z,43.38
2018-06-19T14:52:52.892Z,42.78
2018-06-19T14:55:21.703Z,43.19
2018-06-19T14:57:50.322Z,44.27
2018-06-19T15:00:19.060Z,44.32
2018-06-19T15:02:47.672Z,43.14
2018-06-19T15:05:16.865Z,44.76
2018-06-19T15:07:50.641Z,45.31
2018-06-19T15:10:19.993Z,44.51
2018-06-19T15:12:48.822Z,44.35
2018-06-19T15:15:17.697Z,44.74
2018-06-19T15:17:46.507Z,44.98
2018-06-19T15:20:15.930Z,45.36
2018-06-19T15:22:44.887Z,46.05
2018-06-19T15:25:14.628Z,45.08
2018-06-19T15:27:43.559Z,45.29
2018-06-19T15:30:12.623Z,45.23
2018-06-19T15:32:42.374Z,46.10
2018-06-19T15:35:11.226Z,44.97
2018-06-19T15:37:39.889Z,44.77
2018-06-19T15:40:08.758Z,44.58
2018-06-19T15:42:37.891Z,45.75
2018-06-19T15:45:06.725Z,46.19
2018-06-19T15:47:35.517Z,45.36
2018-06-19T15:50:05.178Z,46.27
2018-06-19T15:52:34.548Z,45.82
2018-06-19T15:55:04.468Z,45.93
2018-06-19T15:57:33.327Z,46.30
2018-06-19T16:00:02.124Z,45.18
2018-06-19T16:02:30.917Z,44.39
2018-06-19T16:04:59.822Z,45.52
2018-06-19T16:07:28.997Z,44.82
2018-06-19T16:09:57.755Z,44.69
2018-06-19T16:12:26.726Z,44.44
2018-06-19T16:14:55.920Z,44.67
2018-06-19T16:17:24.828Z,45.28
2018-06-19T16:19:55.168Z,45.87
2018-06-19T16:22:24.086Z,45.24
2018-06-19T16:24:53.942Z,44.79
2018-06-19T16:27:26.584Z,44.74
2018-06-19T16:30:13.078Z,44.39
2018-06-19T16:32:51.908Z,44.78
2018-06-19T16:35:21.250Z,45.26
2018-06-19T16:37:50.078Z,45.60
2018-06-19T16:40:18.793Z,46.00
2018-06-19T16:42:47.683Z,46.19
2018-06-19T16:45:18.141Z,46.02
2018-06-19T16:47:47.524Z,45.99
2018-06-19T16:50:16.086Z,45.28
2018-06-19T16:52:44.816Z,46.12
2018-06-19T16:55:13.578Z,45.61
2018-06-19T16:57:43.454Z,45.93
2018-06-19T17:00:12.621Z,45.34
2018-06-19T17:02:41.533Z,45.96
2018-06-19T17:05:10.490Z,45.22
2018-06-19T17:07:44.537Z,45.99
2018-06-19T17:10:14.318Z,45.38
2018-06-19T17:15:48.222Z,44.97
2018-06-19T17:18:17.747Z,45.26
2018-06-19T17:20:47.258Z,45.05
2018-06-19T17:23:17.454Z,46.12
2018-06-19T17:25:47.424Z,45.97
2018-06-19T17:28:16.872Z,46.37
2018-06-19T17:30:45.597Z,46.33
2018-06-19T17:33:14.992Z,46.92
2018-06-19T17:35:43.809Z,47.32
2018-06-19T17:38:12.868Z,46.52
2018-06-19T17:40:43.233Z,47.20
2018-06-19T17:43:12.064Z,47.62
2018-06-19T17:45:40.962Z,47.53
2018-06-19T17:48:09.654Z,47.57
2018-06-19T17:50:38.750Z,47.98
2018-06-19T17:53:07.362Z,48.50
2018-06-19T17:55:36.008Z,48.52
2018-06-19T17:58:05.062Z,48.43
2018-06-19T18:00:33.742Z,47.92
2018-06-19T18:03:02.388Z,48.74
2018-06-19T18:05:31.040Z,48.77
2018-06-19T18:07:59.731Z,48.76
2018-06-19T18:10:28.450Z,49.30
2018-06-19T18:12:57.212Z,49.81
2018-06-19T18:15:26.827Z,48.96
2018-06-19T18:18:02.707Z,49.30
2018-06-19T18:20:31.406Z,49.69
2018-06-19T18:23:00.796Z,48.93
2018-06-19T18:25:29.498Z,49.76
2018-06-19T18:27:58.123Z,49.25
2018-06-19T18:30:26.911Z,49.07
2018-06-19T18:32:55.935Z,49.55
2018-06-19T18:35:24.759Z,49.92
2018-06-19T18:37:54.618Z,50.33
2018-06-19T18:40:23.410Z,49.70
2018-06-19T18:42:52.236Z,49.92
2018-06-19T18:45:21.028Z,50.83
2018-06-19T18:47:50.793Z,51.22
2018-06-19T18:50:19.391Z,51.33
2018-06-19T18:52:48.204Z,51.24
2018-06-19T18:55:16.822Z,51.34
2018-06-19T18:57:52.664Z,50.77
2018-06-19T19:00:22.855Z,50.86
2018-06-19T19:02:52.719Z,50.67
2018-06-19T19:05:21.328Z,50.92
2018-06-19T19:07:53.955Z,50.92
2018-06-19T19:10:28.302Z,51.65
2018-06-19T19:12:57.014Z,52.20
2018-06-19T19:17:34.220Z,51.02
2018-06-19T19:20:05.630Z,50.96
2018-06-19T19:22:34.464Z,50.97
2018-06-19T19:25:04.252Z,51.90
2018-06-19T19:27:38.036Z,51.20
2018-06-19T19:30:07.303Z,51.46
2018-06-19T19:32:36.492Z,52.09
2018-06-19T19:35:06.701Z,51.88
2018-06-19T19:37:40.625Z,52.26
2018-06-19T19:40:09.926Z,51.96
2018-06-19T19:42:38.954Z,51.43
2018-06-19T19:45:07.757Z,51.53
2018-06-19T19:47:41.647Z,52.55
2018-06-19T19:50:10.723Z,51.60
2018-06-19T19:52:39.507Z,52.64
2018-06-19T19:55:08.295Z,52.45
2018-06-19T19:57:42.149Z,52.12
2018-06-19T20:00:14.039Z,52.11
2018-06-19T20:02:42.750Z,52.14
2018-06-19T20:05:11.568Z,52.01
2018-06-19T20:07:40.608Z,52.93
2018-06-19T20:10:09.420Z,52.26
2018-06-19T20:12:38.303Z,53.00
2018-06-19T20:15:07.205Z,52.53
2018-06-19T20:17:36.066Z,53.13
2018-06-19T20:20:07.419Z,53.70
2018-06-19T20:22:36.449Z,53.05
2018-06-19T20:25:05.387Z,53.15
2018-06-19T20:27:34.684Z,52.99
2018-06-19T20:30:03.314Z,53.76
2018-06-19T20:32:32.278Z,54.06
2018-06-19T20:35:01.484Z,54.09
2018-06-19T20:37:30.594Z,53.71
2018-06-19T20:39:59.310Z,53.79
2018-06-19T20:42:28.286Z,53.26
2018-06-19T20:44:57.468Z,53.62
2018-06-19T20:47:26.324Z,54.52
2018-06-19T20:49:55.298Z,54.36
2018-06-19T20:52:24.597Z,54.53
2018-06-19T20:54:53.690Z,54.95
2018-06-19T20:57:22.889Z,54.66
2018-06-19T20:59:51.772Z,54.28
2018-06-19T21:02:20.682Z,54.84
2018-06-19T21:04:49.822Z,54.14
2018-06-19T21:09:52.136Z,55.49
2018-06-19T21:12:21.518Z,54.64
2018-06-19T21:14:50.630Z,54.66
2018-06-19T21:17:19.778Z,54.48
2018-06-19T21:19:48.697Z,55.47
2018-06-19T21:22:17.844Z,55.43
2018-06-19T21:24:46.921Z,55.48
2018-06-19T21:27:16.060Z,54.86
2018-06-19T21:29:45.302Z,55.36
2018-06-19T21:32:14.113Z,55.63
2018-06-19T21:34:43.347Z,55.97
2018-06-19T21:37:12.039Z,55.54
2018-06-19T21:39:40.941Z,55.45
2018-06-19T21:42:09.776Z,56.22
2018-06-19T21:44:38.856Z,55.72
2018-06-19T21:47:07.835Z,55.85
2018-06-19T21:49:36.637Z,56.33
2018-06-19T21:52:05.399Z,55.89
2018-06-19T21:54:34.166Z,56.09
2018-06-19T21:57:02.978Z,56.05
2018-06-19T21:59:31.804Z,55.63
2018-06-19T22:02:00.876Z,56.53
2018-06-19T22:04:29.862Z,55.74
2018-06-19T22:06:58.605Z,56.52
2018-06-19T22:09:27.289Z,56.16
2018-06-19T22:11:55.937Z,56.84
2018-06-19T22:14:24.496Z,56.44
2018-06-19T22:16:53.033Z,57.04
2018-06-19T22:19:22.020Z,57.08
2018-06-19T22:21:50.619Z,57.51
2018-06-19T22:24:19.274Z,57.25
2018-06-19T22:26:47.842Z,57.56
2018-06-19T22:29:16.545Z,56.92
2018-06-19T22:31:45.424Z,57.56
2018-06-19T22:34:14.087Z,57.07
2018-06-19T22:36:42.875Z,57.14
2018-06-19T22:39:11.453Z,57.52
2018-06-19T22:41:40.231Z,57.69
2018-06-19T22:44:08.800Z,57.34
2018-06-19T22:46:37.522Z,57.08
2018-06-19T22:49:06.183Z,57.88
2018-06-19T22:51:35.002Z,57.83
2018-06-19T22:54:04.355Z,57.26
2018-06-19T22:56:33.422Z,57.91
2018-06-19T22:59:02.032Z,57.92
2018-06-19T23:01:30.901Z,57.87
2018-06-19T23:03:59.681Z,57.89
2018-06-19T23:06:29.301Z,58.39
2018-06-19T23:08:58.055Z,58.21
2018-06-19T23:11:26.659Z,57.80
2018-06-19T23:13:55.407Z,57.72
2018-06-19T23:16:24.069Z,57.50
2018-06-19T23:18:52.942Z,58.11
2018-06-19T23:21:22.624Z,58.37
2018-06-19T23:23:51.436Z,58.36
2018-06-19T23:26:20.124Z,58.08
2018-06-19T23:28:48.943Z,57.63
2018-06-19T23:31:18.309Z,58.08
2018-06-19T23:33:46.997Z,57.95
2018-06-19T23:36:15.898Z,58.64
2018-06-19T23:38:44.800Z,58.48
2018-06-19T23:41:13.679Z,58.77
2018-06-19T23:43:42.420Z,58.01
2018-06-19T23:46:11.123Z,58.40
2018-06-19T23:48:39.804Z,58.86
2018-06-19T23:51:08.366Z,57.98
2018-06-19T23:53:37.037Z,58.13
2018-06-19T23:56:05.642Z,57.97
2018-06-19T23:58:34.651Z,58.51
